createdAt,value
2019-03-31T17:27:08.063Z,13.88
2019-03-31T17:28:10.195Z,13.86
2019-03-31T17:29:08.001Z,13.80
2019-03-31T17:30:07.989Z,13.85
2019-03-31T17:31:07.976Z,13.68
2019-03-31T17:32:07.993Z,13.64
2019-03-31T17:33:07.977Z,13.61
2019-03-31T17:34:07.966Z,13.61
2019-03-31T17:35:07.984Z,13.65
2019-03-31T17:36:07.924Z,13.63
2019-03-31T17:37:07.911Z,13.64
2019-03-31T17:38:07.933Z,13.64
2019-03-31T17:39:07.904Z,13.65
2019-03-31T17:40:16.260Z,13.57
2019-03-31T17:41:07.875Z,13.51
2019-03-31T17:42:07.863Z,13.65
2019-03-31T17:43:07.891Z,13.51
2019-03-31T17:44:07.833Z,13.40
2019-03-31T17:45:07.823Z,13.29
2019-03-31T17:46:07.818Z,13.26
2019-03-31T17:47:07.814Z,13.19
2019-03-31T17:48:07.879Z,13.16
2019-03-31T17:49:07.808Z,13.08
2019-03-31T17:50:07.772Z,13.09
2019-03-31T17:51:07.798Z,13.04
2019-03-31T17:52:07.750Z,12.95
2019-03-31T17:53:07.743Z,12.93
2019-03-31T17:54:07.748Z,12.79
2019-03-31T17:55:07.719Z,12.72
2019-03-31T17:56:07.705Z,12.72
2019-03-31T17:57:07.690Z,12.65
2019-03-31T17:58:07.689Z,12.68
2019-03-31T17:59:09.014Z,12.68
2019-03-31T18:00:07.662Z,12.69
2019-03-31T18:01:07.663Z,12.71
2019-03-31T18:02:07.698Z,12.69
2019-03-31T18:03:07.628Z,12.59
2019-03-31T18:04:07.638Z,12.62
2019-03-31T18:05:07.605Z,12.55
2019-03-31T18:06:07.597Z,12.58
2019-03-31T18:07:07.607Z,12.58
2019-03-31T18:08:07.570Z,12.51
2019-03-31T18:09:07.577Z,12.58
2019-03-31T18:10:20.098Z,12.46
2019-03-31T18:11:07.578Z,12.50
2019-03-31T18:12:07.582Z,12.55
2019-03-31T18:13:07.600Z,12.54
2019-03-31T18:14:07.525Z,12.58
2019-03-31T18:15:07.504Z,12.51
2019-03-31T18:16:17.294Z,12.55
2019-03-31T18:17:59.617Z,12.48
2019-03-31T18:18:59.614Z,12.40
2019-03-31T18:19:59.581Z,12.41
2019-03-31T18:20:59.571Z,12.29
2019-03-31T18:21:59.558Z,12.29
2019-03-31T18:22:59.553Z,12.32
2019-03-31T18:23:59.599Z,12.30
2019-03-31T18:24:59.536Z,12.32
2019-03-31T18:25:59.523Z,12.23
2019-03-31T18:26:59.526Z,12.18
2019-03-31T18:27:59.491Z,12.18
2019-03-31T18:28:59.530Z,12.25
2019-03-31T18:29:59.512Z,12.10
2019-03-31T18:30:59.472Z,12.13
2019-03-31T18:31:59.470Z,12.23
2019-03-31T18:32:59.437Z,12.14
2019-03-31T18:33:59.452Z,12.14
2019-03-31T18:34:59.460Z,12.13
2019-03-31T18:35:59.424Z,12.22
2019-03-31T18:36:59.398Z,12.13
2019-03-31T18:37:59.383Z,12.15
2019-03-31T18:38:59.406Z,12.21
2019-03-31T18:39:59.386Z,12.22
2019-03-31T18:40:59.374Z,12.17
2019-03-31T18:41:59.389Z,11.97
2019-03-31T18:42:59.337Z,12.05
2019-03-31T18:43:59.345Z,12.03
2019-03-31T18:44:59.308Z,11.99
2019-03-31T18:45:59.305Z,12.05
2019-03-31T18:46:59.284Z,12.04
2019-03-31T18:48:01.166Z,11.99
2019-03-31T18:48:59.282Z,11.96
2019-03-31T18:49:59.250Z,11.99
2019-03-31T18:50:59.239Z,11.96
2019-03-31T18:51:59.242Z,11.91
2019-03-31T18:52:59.232Z,11.88
2019-03-31T18:53:59.233Z,11.89
2019-03-31T18:54:59.201Z,11.89
2019-03-31T18:55:59.289Z,11.80
2019-03-31T18:56:59.181Z,11.85
2019-03-31T18:57:59.202Z,11.80
2019-03-31T18:58:59.213Z,11.85
2019-03-31T18:59:59.164Z,11.79
2019-03-31T19:00:59.135Z,11.66
2019-03-31T19:01:59.132Z,11.62
2019-03-31T19:02:59.124Z,11.56
2019-03-31T19:03:59.149Z,11.58
2019-03-31T19:04:59.103Z,11.56
2019-03-31T19:05:59.082Z,11.51
2019-03-31T19:06:59.117Z,11.55
2019-03-31T19:07:59.299Z,11.41
2019-03-31T19:08:59.134Z,11.41
2019-03-31T19:09:59.047Z,11.38
2019-03-31T19:10:59.017Z,11.27
2019-03-31T19:11:59.038Z,11.20
2019-03-31T19:12:58.999Z,11.23
2019-03-31T19:13:59.046Z,11.23
2019-03-31T19:14:58.973Z,11.22
2019-03-31T19:15:58.980Z,11.23
2019-03-31T19:16:58.996Z,11.23
2019-03-31T19:17:59.106Z,11.23
2019-03-31T19:18:58.957Z,11.23
2019-03-31T19:19:58.957Z,11.25
2019-03-31T19:21:10.477Z,11.22
2019-03-31T19:21:59.041Z,11.19
2019-03-31T19:22:58.892Z,11.23
2019-03-31T19:23:58.964Z,11.16
2019-03-31T19:24:58.906Z,11.18
2019-03-31T19:25:58.850Z,11.16
2019-03-31T19:26:58.848Z,11.12
2019-03-31T19:27:58.894Z,11.15
2019-03-31T19:28:58.937Z,11.03
2019-03-31T19:29:58.825Z,11.03
2019-03-31T19:30:58.799Z,11.05
2019-03-31T19:31:58.818Z,11.08
2019-03-31T19:32:58.834Z,11.05
2019-03-31T19:33:58.764Z,11.03
2019-03-31T19:34:58.803Z,11.05
2019-03-31T19:36:07.799Z,11.03
2019-03-31T19:36:58.758Z,11.03
2019-03-31T19:37:58.723Z,11.11
2019-03-31T19:38:58.719Z,11.01
2019-03-31T19:39:58.715Z,11.01
2019-03-31T19:41:04.543Z,11.01
2019-03-31T19:41:58.701Z,11.04
2019-03-31T19:42:58.666Z,10.97
2019-03-31T19:43:58.670Z,11.03
2019-03-31T19:44:58.663Z,11.03
2019-03-31T19:45:58.658Z,10.94
2019-03-31T19:46:58.640Z,11.08
2019-03-31T19:47:58.628Z,10.98
2019-03-31T19:48:58.597Z,10.94
2019-03-31T19:49:58.605Z,11.01
2019-03-31T19:51:07.885Z,10.86
2019-03-31T19:51:58.595Z,11.00
2019-03-31T19:53:07.466Z,10.91
2019-03-31T19:53:58.542Z,10.87
2019-03-31T19:54:58.556Z,10.85
2019-03-31T19:56:07.380Z,10.68
2019-03-31T19:56:58.515Z,10.68
2019-03-31T19:57:58.529Z,10.70
2019-03-31T19:58:58.504Z,10.68
2019-03-31T19:59:58.496Z,10.52
2019-03-31T20:00:58.464Z,10.55
2019-03-31T20:01:58.479Z,10.48
2019-03-31T20:02:58.468Z,10.46
2019-03-31T20:03:58.436Z,10.42
2019-03-31T20:04:58.528Z,10.49
2019-03-31T20:05:58.430Z,10.41
2019-03-31T20:06:58.495Z,10.38
2019-03-31T20:07:58.391Z,10.35
2019-03-31T20:08:58.377Z,10.36
2019-03-31T20:09:58.416Z,10.41
2019-03-31T20:10:58.355Z,10.39
2019-03-31T20:11:58.382Z,10.43
2019-03-31T20:12:58.347Z,10.39
2019-03-31T20:13:58.320Z,10.41
2019-03-31T20:14:58.370Z,10.35
2019-03-31T20:15:58.299Z,10.38
2019-03-31T20:16:58.289Z,10.31
2019-03-31T20:17:58.310Z,10.31
2019-03-31T20:18:58.315Z,10.26
2019-03-31T20:20:07.783Z,10.30
2019-03-31T20:20:58.241Z,10.30
2019-03-31T20:21:58.243Z,10.31
2019-03-31T20:22:58.220Z,10.34
2019-03-31T20:23:58.218Z,10.27
2019-03-31T20:24:58.258Z,10.24
2019-03-31T20:25:58.305Z,10.27
2019-03-31T20:26:58.257Z,10.31
2019-03-31T20:27:59.700Z,10.34
2019-03-31T20:28:58.206Z,10.30
2019-03-31T20:29:58.278Z,10.23
2019-03-31T20:30:58.193Z,10.30
2019-03-31T20:31:58.121Z,10.30
2019-03-31T20:32:58.200Z,10.31
2019-03-31T20:33:58.665Z,10.21
2019-03-31T20:34:58.791Z,10.24
2019-03-31T20:35:58.240Z,10.16
2019-03-31T20:36:58.322Z,10.27
2019-03-31T20:37:58.277Z,10.10
2019-03-31T20:38:58.722Z,10.20
2019-03-31T20:39:58.236Z,10.18
2019-03-31T20:40:58.749Z,10.17
2019-03-31T20:41:58.079Z,10.08
2019-03-31T20:42:58.174Z,10.17
2019-03-31T20:43:58.047Z,10.08
2019-03-31T20:44:58.005Z,10.18
2019-03-31T20:45:58.027Z,10.16
2019-03-31T20:47:06.207Z,10.12
2019-03-31T20:47:57.937Z,10.09
2019-03-31T20:48:57.932Z,10.14
2019-03-31T20:49:57.944Z,10.10
2019-03-31T20:50:57.908Z,10.10
2019-03-31T20:51:57.896Z,10.08
2019-03-31T20:52:57.905Z,10.17
2019-03-31T20:53:57.879Z,10.16
2019-03-31T20:54:57.881Z,10.09
2019-03-31T20:55:57.882Z,10.01
2019-03-31T20:56:57.895Z,10.05
2019-03-31T20:57:57.849Z,9.94
2019-03-31T20:58:57.817Z,9.94
2019-03-31T20:59:57.830Z,9.93
2019-03-31T21:01:49.430Z,9.93
2019-03-31T21:02:49.412Z,9.88
2019-03-31T21:03:49.407Z,9.93
2019-03-31T21:04:49.394Z,9.83
2019-03-31T21:05:49.397Z,9.84
2019-03-31T21:06:49.369Z,9.78
2019-03-31T21:07:49.364Z,9.77
2019-03-31T21:08:49.357Z,9.67
2019-03-31T21:09:49.332Z,9.72
2019-03-31T21:10:49.346Z,9.59
2019-03-31T21:11:49.362Z,9.52
2019-03-31T21:12:49.301Z,9.57
2019-03-31T21:13:49.287Z,9.50
2019-03-31T21:14:58.603Z,9.45
2019-03-31T21:15:49.264Z,9.45
2019-03-31T21:16:49.260Z,9.36
2019-03-31T21:17:49.242Z,9.33
2019-03-31T21:18:49.236Z,9.33
2019-03-31T21:19:49.224Z,9.27
2019-03-31T21:20:49.247Z,9.30
2019-03-31T21:21:49.203Z,9.23
2019-03-31T21:22:49.186Z,9.15
2019-03-31T21:23:49.172Z,9.15
2019-03-31T21:24:49.183Z,9.01
2019-03-31T21:25:49.374Z,8.95
2019-03-31T21:26:49.139Z,8.89
2019-03-31T21:27:49.127Z,8.83
2019-03-31T21:28:49.564Z,8.80
2019-03-31T21:29:49.111Z,8.88
2019-03-31T21:30:49.132Z,8.80
2019-03-31T21:31:49.084Z,8.78
2019-03-31T21:32:49.075Z,8.81
2019-03-31T21:33:49.060Z,8.75
2019-03-31T21:34:49.049Z,8.70
2019-03-31T21:35:49.056Z,8.67
2019-03-31T21:36:49.027Z,8.65
2019-03-31T21:37:49.036Z,8.55
2019-03-31T21:38:49.006Z,8.57
2019-03-31T21:39:49.003Z,8.62
2019-03-31T21:40:49.005Z,8.67
2019-03-31T21:41:48.969Z,8.63
2019-03-31T21:42:48.957Z,8.62
2019-03-31T21:43:57.298Z,8.55
2019-03-31T21:44:48.942Z,8.57
2019-03-31T21:45:49.388Z,8.63
2019-03-31T21:46:48.916Z,8.62
2019-03-31T21:47:48.908Z,8.59
2019-03-31T21:48:48.899Z,8.57
2019-03-31T21:49:48.892Z,8.60
2019-03-31T21:50:49.151Z,8.68
2019-03-31T21:51:57.232Z,8.68
2019-03-31T21:52:48.846Z,8.70
2019-03-31T21:53:48.833Z,8.60
2019-03-31T21:54:48.824Z,8.70
2019-03-31T21:55:48.890Z,8.63
2019-03-31T21:56:48.837Z,8.62
2019-03-31T21:57:48.814Z,8.70
2019-03-31T21:58:48.780Z,8.75
2019-03-31T21:59:48.767Z,8.77
2019-03-31T22:00:48.832Z,8.72
2019-03-31T22:01:48.774Z,8.85
2019-03-31T22:02:48.732Z,8.78
2019-03-31T22:03:48.730Z,8.80
2019-03-31T22:04:48.714Z,8.80
2019-03-31T22:05:48.734Z,9.01
2019-03-31T22:06:48.702Z,8.86
2019-03-31T22:07:48.680Z,8.83
2019-03-31T22:08:48.667Z,8.93
2019-03-31T22:09:48.655Z,8.81
2019-03-31T22:10:48.734Z,8.83
2019-03-31T22:11:48.639Z,8.77
2019-03-31T22:12:48.625Z,8.74
2019-03-31T22:13:48.612Z,8.71
2019-03-31T22:14:48.607Z,8.70
2019-03-31T22:15:48.614Z,8.75
2019-03-31T22:16:48.576Z,8.71
2019-03-31T22:17:48.568Z,8.71
2019-03-31T22:18:48.555Z,8.67
2019-03-31T22:19:48.545Z,8.59
2019-03-31T22:20:48.561Z,8.72
2019-03-31T22:21:48.527Z,8.65
2019-03-31T22:22:48.530Z,8.72
2019-03-31T22:23:57.710Z,8.72
2019-03-31T22:24:48.489Z,8.59
2019-03-31T22:25:48.498Z,8.63
2019-03-31T22:26:48.475Z,8.67
2019-03-31T22:27:48.496Z,8.65
2019-03-31T22:28:48.570Z,8.70
2019-03-31T22:29:48.435Z,8.55
2019-03-31T22:30:48.449Z,8.57
2019-03-31T22:31:48.409Z,8.56
2019-03-31T22:32:57.237Z,8.49
2019-03-31T22:33:48.389Z,8.46
2019-03-31T22:34:56.800Z,8.49
2019-03-31T22:35:48.390Z,8.44
2019-03-31T22:36:48.356Z,8.38
2019-03-31T22:37:48.343Z,8.38
2019-03-31T22:38:48.352Z,8.38
2019-03-31T22:39:48.320Z,8.19
2019-03-31T22:40:48.334Z,8.23
2019-03-31T22:41:48.299Z,8.09
2019-03-31T22:42:48.286Z,8.16
2019-03-31T22:43:48.293Z,8.10
2019-03-31T22:44:56.511Z,8.04
2019-03-31T22:45:48.277Z,7.94
2019-03-31T22:46:54.436Z,7.94
2019-03-31T22:47:48.232Z,7.92
2019-03-31T22:48:48.222Z,7.84
2019-03-31T22:49:48.216Z,7.87
2019-03-31T22:50:48.255Z,7.83
2019-03-31T22:51:48.198Z,7.69
2019-03-31T22:52:48.175Z,7.71
2019-03-31T22:53:48.185Z,7.54
2019-03-31T22:54:48.308Z,7.44
2019-03-31T22:55:57.504Z,7.37
2019-03-31T22:56:48.134Z,7.29
2019-03-31T22:57:48.174Z,7.26
2019-03-31T22:58:48.109Z,7.18
2019-03-31T22:59:48.098Z,7.29
2019-03-31T23:00:48.111Z,7.19
2019-03-31T23:01:48.075Z,7.25
2019-03-31T23:02:48.068Z,7.26
2019-03-31T23:03:48.053Z,7.22
2019-03-31T23:04:48.054Z,7.16
2019-03-31T23:05:57.412Z,7.18
2019-03-31T23:06:48.025Z,7.21
2019-03-31T23:07:48.011Z,7.19
2019-03-31T23:08:48.021Z,7.21
2019-03-31T23:09:47.986Z,7.21
2019-03-31T23:10:48.062Z,7.24
2019-03-31T23:11:47.964Z,7.19
2019-03-31T23:12:48.015Z,7.18
2019-03-31T23:13:47.972Z,7.19
2019-03-31T23:14:47.947Z,7.07
2019-03-31T23:15:47.963Z,7.11
2019-03-31T23:16:57.253Z,7.15
2019-03-31T23:17:47.910Z,7.07
2019-03-31T23:18:47.890Z,6.92
2019-03-31T23:19:47.881Z,6.96
2019-03-31T23:20:47.899Z,7.04
2019-03-31T23:21:47.868Z,6.91
2019-03-31T23:22:47.874Z,6.93
2019-03-31T23:23:47.834Z,7.01
2019-03-31T23:24:47.825Z,6.99
2019-03-31T23:25:47.858Z,6.92
2019-03-31T23:26:57.166Z,6.88
2019-03-31T23:27:47.793Z,6.96
2019-03-31T23:28:47.778Z,6.81
2019-03-31T23:29:47.766Z,6.64
2019-03-31T23:30:47.779Z,6.68
2019-03-31T23:31:47.782Z,6.78
2019-03-31T23:32:47.739Z,6.57
2019-03-31T23:33:47.727Z,6.65
2019-03-31T23:34:47.716Z,6.50
2019-03-31T23:35:47.792Z,6.56
2019-03-31T23:36:47.702Z,6.63
2019-03-31T23:37:47.679Z,6.70
2019-03-31T23:38:47.674Z,6.68
2019-03-31T23:39:47.656Z,6.67
2019-03-31T23:40:47.686Z,6.61
2019-03-31T23:41:47.651Z,6.74
2019-03-31T23:42:56.930Z,6.70
2019-03-31T23:43:47.612Z,6.60
2019-03-31T23:44:47.600Z,6.63
2019-03-31T23:45:47.611Z,6.57
2019-03-31T23:46:47.586Z,6.55
2019-03-31T23:47:47.567Z,6.63
2019-03-31T23:48:47.558Z,6.52
2019-03-31T23:49:47.545Z,6.52
2019-03-31T23:50:47.555Z,6.47
2019-03-31T23:51:47.526Z,6.35
2019-03-31T23:52:47.516Z,6.46
2019-03-31T23:53:47.503Z,6.27
2019-03-31T23:54:47.507Z,6.25
2019-03-31T23:55:47.504Z,6.34
2019-03-31T23:56:55.931Z,6.35
2019-03-31T23:57:47.461Z,6.32
2019-03-31T23:58:47.448Z,6.38
2019-03-31T23:59:47.435Z,6.34
